CheckWX is a tool to help pilots better visualize weather data.  It is not intended as a substitute for an official pre-flight weather briefing.

06:49:33 UTC

KTVF TAF
Thief River Falls Regional Airport
Thief River Falls, Minnesota, USA
KTVF 170520Z 1706/1806 VRB03KT P6SM VCSH BKN025 FM170900 VRB03KT P6SM VCSH OVC010 FM171200 28005KT P6SM OVC005 FM171500 31007KT P6SM OVC006 FM172300 35007KT P6SM BKN021 FM180400 VRB03KT P6SM BKN060

Jun-17@
06:00 UTC

Jun-17 @ 06:00 UTC

Jun-17@
09:00 UTC

Jun-17 @ 09:00 UTC

KTVF 170520Z 1706/1806 VRB03KT P6SM VCSH BKN025
Wind
  • Variable at 3 KTS
Cloud Levels
  • Broken at 2,500' AGL

Jun-17@
09:00 UTC

Jun-17 @ 09:00 UTC

Jun-17@
12:00 UTC

Jun-17 @ 12:00 UTC

FM170900 VRB03KT P6SM VCSH OVC010

From

From Standard forecast or significant change

Wind
  • Variable at 3 KTS
Cloud Levels
  • Overcast at 1,000' AGL

Jun-17@
12:00 UTC

Jun-17 @ 12:00 UTC

Jun-17@
15:00 UTC

Jun-17 @ 15:00 UTC

FM171200 28005KT P6SM OVC005

From

From Standard forecast or significant change

Wind
  • 280° at 5 KTS
Cloud Levels
  • Overcast at 500' AGL

Jun-17@
15:00 UTC

Jun-17 @ 15:00 UTC

Jun-17@
23:00 UTC

Jun-17 @ 23:00 UTC

FM171500 31007KT P6SM OVC006

From

From Standard forecast or significant change

Wind
  • 310° at 7 KTS
Cloud Levels
  • Overcast at 600' AGL

Jun-17@
23:00 UTC

Jun-17 @ 23:00 UTC

Jun-18@
04:00 UTC

Jun-18 @ 04:00 UTC

FM172300 35007KT P6SM BKN021

From

From Standard forecast or significant change

Wind
  • 350° at 7 KTS
Cloud Levels
  • Broken at 2,100' AGL

Jun-18@
04:00 UTC

Jun-18 @ 04:00 UTC

Jun-18@
06:00 UTC

Jun-18 @ 06:00 UTC

FM180400 VRB03KT P6SM BKN060

From

From Standard forecast or significant change

Wind
  • Variable at 3 KTS
Cloud Levels
  • Broken at 6,000' AGL